Weather at Albert J Lindberg Airport

Public forecast

Using degrees Fahrenheit for public forecast. Weather courtesy of forecast.io.

Closest aviation weather report (METAR) to Albert J Lindberg Airport

Closest report is Chippewa County International Airport, 13.1 nm (24.2 km) N. Retrieved 2021/09/21 03:56 UTC (9 minutes ago):

KCIU 210356Z AUTO 16011KT 8SM FEW009 BKN060 OVC080 20/19 A2982 RMK AO2 SLP096 T02000194

Closest aviation forecast (TAF) to Albert J Lindberg Airport

Closest forecast is Sault Ste Marie Airport, 27.2 nm (50.4 km) N. Retrieved 2021-09-21 02:42 UTC (1 hour ago):

TAF TAF CYAM 210138Z 2102/2114 12010G20KT P6SM SCT007 BKN030 TEMPO 2102/2103 5SM -SHRA BR OVC007 FM210300 14012KT 5SM -RA -DZ BR BKN007 OVC015 TEMPO 2103/2109 P6SM NSW BKN015 OVC030 PROB30 2103/2109 OVC005 FM210900 18015KT 21/2SM -SHRA BR OVC005 PROB30 2109/2112 11/2SM TSRA BR BKN005 OVC020CB FM211200 30010G20KT P6SM -SHRA BKN015 OVC025 RMK NXT FCST BY 210800Z